Time;durP1;ratioP1;P1;durP2;ratioP2;P2;SDS_P1;SDS_P2;PMS_P1;PMS_P2;Temp;Humidity;BMP_temperature;BMP_pressure;BME280_temperature;BME280_humidity;BME280_pressure;Samples;Min_cycle;Max_cycle;Signal;HPM_P1;HPM_P2
2022/03/25 00:00:14;;;;;;;31.84;24.16;;;;;;;2.52;43.79;101180.06;457065;116;923166;-69
2022/03/25 00:01:17;;;;;;;36.10;24.82;;;;;;;2.53;43.75;101172.84;456754;116;922564;-68
2022/03/25 00:02:20;;;;;;;28.94;22.89;;;;;;;2.54;43.87;101177.23;454527;116;922578;-68
2022/03/25 00:03:24;;;;;;;33.16;22.60;;;;;;;2.56;43.79;101177.91;454426;116;930963;-70
2022/03/25 00:04:29;;;;;;;33.94;23.67;;;;;;;2.57;43.75;101183.16;454291;116;930384;-70
2022/03/25 00:05:32;;;;;;;31.09;22.87;;;;;;;2.59;43.75;101173.09;454403;116;922497;-68
2022/03/25 00:06:36;;;;;;;26.48;22.59;;;;;;;2.60;43.77;101176.61;454477;116;922974;-69
2022/03/25 00:07:39;;;;;;;28.73;21.84;;;;;;;2.61;43.80;101173.78;454459;116;930669;-68
2022/03/25 00:08:43;;;;;;;24.02;21.33;;;;;;;2.62;43.82;101172.79;454434;116;922551;-70
2022/03/25 00:09:46;;;;;;;34.40;22.43;;;;;;;2.63;43.86;101173.64;454443;116;930362;-69
2022/03/25 00:10:49;;;;;;;26.27;21.60;;;;;;;2.62;43.92;101170.09;454404;116;930936;-67
2022/03/25 00:11:53;;;;;;;29.52;22.95;;;;;;;2.63;43.95;101171.80;454447;116;923070;-68
2022/03/25 00:12:56;;;;;;;25.88;22.20;;;;;;;2.61;44.03;101170.23;454422;116;922960;-70
2022/03/25 00:14:00;;;;;;;23.76;21.35;;;;;;;2.60;44.08;101174.77;454375;116;922721;-69
2022/03/25 00:15:04;;;;;;;27.73;22.19;;;;;;;2.58;44.18;101165.16;454382;116;922514;-68
2022/03/25 00:16:09;;;;;;;26.33;20.99;;;;;;;2.57;44.24;101174.23;454219;116;922521;-70
2022/03/25 00:17:12;;;;;;;29.56;21.21;;;;;;;2.55;44.38;101176.21;454280;116;922563;-67
2022/03/25 00:18:16;;;;;;;25.90;22.54;;;;;;;2.53;44.46;101176.38;454318;116;930420;-69
2022/03/25 00:19:19;;;;;;;29.00;21.04;;;;;;;2.51;44.55;101172.98;454307;116;930196;-68
2022/03/25 00:20:22;;;;;;;28.91;22.55;;;;;;;2.48;44.57;101171.42;454348;116;922613;-68
2022/03/25 00:21:26;;;;;;;32.17;23.30;;;;;;;2.48;44.66;101173.30;454377;116;922682;-68
2022/03/25 00:22:29;;;;;;;32.41;23.38;;;;;;;2.45;44.68;101165.50;454296;116;922542;-68
2022/03/25 00:23:33;;;;;;;26.07;22.65;;;;;;;2.44;44.71;101171.88;454408;116;922654;-69
2022/03/25 00:24:36;;;;;;;26.94;23.56;;;;;;;2.43;44.77;101170.17;454445;116;923025;-66
2022/03/25 00:25:39;;;;;;;33.51;23.68;;;;;;;2.41;44.74;101164.95;454388;116;922739;-69
2022/03/25 00:26:43;;;;;;;34.47;24.30;;;;;;;2.41;44.79;101169.48;454271;116;930445;-68
2022/03/25 00:27:46;;;;;;;29.48;24.99;;;;;;;2.40;44.72;101165.95;454395;116;927246;-68
2022/03/25 00:28:50;;;;;;;32.45;23.99;;;;;;;2.40;44.74;101167.78;454408;116;922580;-69
2022/03/25 00:29:53;;;;;;;36.25;24.07;;;;;;;2.39;44.74;101166.94;454318;116;930773;-70
2022/03/25 00:30:57;;;;;;;36.63;23.41;;;;;;;2.39;44.71;101169.63;454031;116;930558;-68
2022/03/25 00:32:00;;;;;;;29.82;23.56;;;;;;;2.39;44.66;101172.31;454182;116;930644;-69
2022/03/25 00:33:04;;;;;;;35.54;24.19;;;;;;;2.36;44.63;101164.55;454278;116;930482;-68
2022/03/25 00:34:09;;;;;;;33.22;23.75;;;;;;;2.33;44.59;101169.36;454415;116;922767;-69
2022/03/25 00:35:12;;;;;;;32.33;24.63;;;;;;;2.28;44.52;101163.58;454340;116;922629;-70
2022/03/25 00:36:18;;;;;;;28.91;22.71;;;;;;;2.21;44.55;101160.62;454061;116;930654;-69
2022/03/25 00:37:23;;;;;;;27.00;22.34;;;;;;;2.15;44.57;101171.96;454407;116;922738;-69
2022/03/25 00:38:27;;;;;;;30.81;23.10;;;;;;;2.08;44.60;101168.19;454291;116;922560;-70
2022/03/25 00:39:32;;;;;;;35.09;24.48;;;;;;;2.04;44.75;101167.61;454318;116;922641;-70
2022/03/25 00:40:35;;;;;;;33.10;23.02;;;;;;;1.99;44.79;101164.51;454431;116;923009;-68
2022/03/25 00:41:41;;;;;;;29.97;22.30;;;;;;;1.96;45.00;101164.81;454205;116;930351;-69
2022/03/25 00:42:44;;;;;;;28.17;22.76;;;;;;;1.94;45.20;101164.09;454401;116;922717;-69
2022/03/25 00:43:47;;;;;;;29.38;22.27;;;;;;;1.95;45.27;101164.95;454491;116;923153;-69
2022/03/25 00:44:51;;;;;;;26.02;21.28;;;;;;;1.94;45.34;101165.94;454464;116;923013;-69
2022/03/25 00:45:54;;;;;;;29.90;22.09;;;;;;;1.92;45.29;101163.41;454386;116;923090;-68
2022/03/25 00:46:58;;;;;;;32.93;21.74;;;;;;;1.88;45.25;101164.67;453931;116;923088;-68
2022/03/25 00:48:01;;;;;;;28.26;21.75;;;;;;;1.84;45.32;101165.97;454358;116;930436;-68
2022/03/25 00:49:06;;;;;;;28.21;20.69;;;;;;;1.81;45.51;101160.89;454432;116;922522;-69
2022/03/25 00:50:11;;;;;;;24.36;19.98;;;;;;;1.81;45.69;101158.20;454390;116;922477;-69
2022/03/25 00:51:14;;;;;;;25.70;20.35;;;;;;;1.82;45.77;101162.56;454346;116;922772;-68
2022/03/25 00:52:18;;;;;;;24.98;19.99;;;;;;;1.83;45.87;101163.41;454359;116;922791;-69
2022/03/25 00:53:22;;;;;;;28.91;22.19;;;;;;;1.84;45.97;101157.90;454438;116;922913;-68
2022/03/25 00:54:26;;;;;;;24.86;20.32;;;;;;;1.85;46.10;101164.12;454442;116;922881;-70
2022/03/25 00:55:30;;;;;;;22.05;19.75;;;;;;;1.86;46.14;101157.77;454320;116;922454;-68
2022/03/25 00:56:33;;;;;;;25.19;20.08;;;;;;;1.87;46.13;101154.09;454353;116;930614;-70
2022/03/25 00:57:36;;;;;;;28.17;20.66;;;;;;;1.86;46.10;101161.30;454455;116;922520;-69
2022/03/25 00:58:40;;;;;;;25.63;20.26;;;;;;;1.84;46.02;101154.36;454440;116;922951;-70
2022/03/25 00:59:43;;;;;;;23.98;19.72;;;;;;;1.82;45.92;101159.88;454453;116;922638;-68
2022/03/25 01:00:47;;;;;;;34.03;21.05;;;;;;;1.80;45.94;101164.56;454350;116;930485;-68
2022/03/25 01:01:50;;;;;;;30.31;21.57;;;;;;;1.77;46.00;101162.14;453854;116;922636;-69
2022/03/25 01:02:54;;;;;;;26.29;21.06;;;;;;;1.74;46.07;101157.08;454487;116;922639;-69
2022/03/25 01:03:59;;;;;;;28.41;22.54;;;;;;;1.72;46.12;101164.42;454343;116;930190;-68
2022/03/25 01:05:02;;;;;;;31.40;21.84;;;;;;;1.69;46.14;101162.03;454727;116;922612;-70
2022/03/25 01:06:06;;;;;;;25.08;20.97;;;;;;;1.64;46.09;101156.24;454863;116;922522;-71
2022/03/25 01:07:09;;;;;;;28.36;21.56;;;;;;;1.60;46.09;101162.87;454877;115;922598;-69
2022/03/25 01:08:15;;;;;;;27.10;21.90;;;;;;;1.55;46.22;101155.24;454861;116;922502;-69
2022/03/25 01:09:18;;;;;;;24.36;20.72;;;;;;;1.53;46.39;101161.77;454970;116;930718;-68
2022/03/25 01:10:23;;;;;;;25.09;20.43;;;;;;;1.53;46.63;101157.25;454917;116;922259;-69
2022/03/25 01:11:27;;;;;;;28.85;21.09;;;;;;;1.55;46.79;101160.62;454735;116;930159;-70
2022/03/25 01:12:30;;;;;;;27.55;21.97;;;;;;;1.58;47.00;101159.50;454805;116;922582;-69
2022/03/25 01:13:34;;;;;;;26.08;22.93;;;;;;;1.62;47.04;101163.59;454396;116;930837;-69
2022/03/25 01:14:37;;;;;;;25.71;22.73;;;;;;;1.65;47.13;101156.08;454717;115;922621;-69
2022/03/25 01:15:41;;;;;;;32.36;22.48;;;;;;;1.69;47.07;101159.34;454716;116;922841;-70
2022/03/25 01:16:45;;;;;;;30.17;24.01;;;;;;;1.72;47.07;101161.73;446415;118;922808;-70
2022/03/25 01:17:50;;;;;;;34.54;23.19;;;;;;;1.76;47.05;101156.94;446916;116;922608;-69
2022/03/25 01:18:55;;;;;;;37.49;24.74;;;;;;;1.77;47.02;101162.14;454575;116;922582;-70
2022/03/25 01:19:58;;;;;;;33.48;24.16;;;;;;;1.81;47.14;101162.73;454677;116;922970;-69
2022/03/25 01:21:02;;;;;;;32.66;25.09;;;;;;;1.84;47.12;101165.11;454604;116;922572;-69
2022/03/25 01:22:05;;;;;;;37.89;23.31;;;;;;;1.88;47.15;101161.13;454571;116;923164;-70
2022/03/25 01:23:09;;;;;;;37.48;23.79;;;;;;;1.89;47.19;101162.84;454571;116;930521;-69
2022/03/25 01:24:12;;;;;;;33.14;24.68;;;;;;;1.90;47.15;101162.70;454512;116;922659;-68
2022/03/25 01:25:19;;;;;;;32.01;24.28;;;;;;;1.92;47.10;101168.80;454479;116;922595;-68
2022/03/25 01:26:24;;;;;;;37.90;26.18;;;;;;;1.93;46.94;101166.95;454355;116;922504;-68
2022/03/25 01:27:28;;;;;;;36.45;25.64;;;;;;;1.92;46.98;101176.86;454431;116;922532;-68
2022/03/25 01:28:34;;;;;;;42.04;25.62;;;;;;;1.91;46.90;101168.93;454570;115;922511;-69
2022/03/25 01:29:40;;;;;;;37.22;25.50;;;;;;;1.90;46.98;101168.08;454317;116;922773;-69
2022/03/25 01:30:45;;;;;;;41.47;27.96;;;;;;;1.91;47.00;101172.47;454304;116;922650;-69
2022/03/25 01:31:48;;;;;;;40.41;28.04;;;;;;;1.92;46.96;101178.70;454387;116;922587;-67
2022/03/25 01:32:53;;;;;;;44.43;28.68;;;;;;;1.92;46.93;101176.86;454340;116;928880;-70
2022/03/25 01:33:56;;;;;;;47.03;30.06;;;;;;;1.92;46.92;101171.48;454471;116;922700;-69
2022/03/25 01:35:00;;;;;;;53.64;32.08;;;;;;;1.95;46.90;101178.39;454415;116;922774;-69
2022/03/25 01:36:04;;;;;;;45.55;28.64;;;;;;;1.95;46.88;101178.39;454388;116;930477;-69
2022/03/25 01:37:09;;;;;;;41.65;29.98;;;;;;;1.95;46.82;101183.77;454355;116;922821;-68
2022/03/25 01:38:13;;;;;;;48.26;30.37;;;;;;;1.95;46.82;101181.94;454362;116;922665;-70
2022/03/25 01:39:16;;;;;;;47.01;29.46;;;;;;;1.96;46.80;101178.26;454083;116;922559;-71
2022/03/25 01:40:20;;;;;;;43.37;29.09;;;;;;;1.97;46.81;101179.96;454438;116;922574;-70
2022/03/25 01:41:25;;;;;;;51.95;30.33;;;;;;;1.98;46.74;101178.97;454218;116;930238;-70
2022/03/25 01:42:32;;;;;;;49.66;29.47;;;;;;;1.98;46.72;101176.28;454280;115;922702;-69
2022/03/25 01:43:36;;;;;;;47.94;30.07;;;;;;;1.99;46.70;101177.10;454300;116;922599;-69
2022/03/25 01:44:39;;;;;;;41.01;29.36;;;;;;;1.99;46.72;101183.34;454454;116;922529;-70
2022/03/25 01:45:42;;;;;;;47.50;30.01;;;;;;;2.00;46.78;101173.42;454119;116;923075;-69
2022/03/25 01:46:46;;;;;;;45.23;29.52;;;;;;;1.99;46.80;101183.34;454403;116;922780;-69
2022/03/25 01:47:49;;;;;;;48.14;29.22;;;;;;;2.00;46.75;101190.41;454328;116;930365;-69
2022/03/25 01:48:54;;;;;;;42.28;29.41;;;;;;;2.00;46.77;101184.19;454390;116;922925;-69
2022/03/25 01:49:58;;;;;;;45.98;29.10;;;;;;;1.99;46.88;101183.34;454319;116;922637;-69
2022/03/25 01:51:02;;;;;;;45.51;29.57;;;;;;;1.99;46.86;101193.24;454387;116;922665;-68
2022/03/25 01:52:06;;;;;;;40.73;28.76;;;;;;;1.98;46.73;101195.11;454357;116;923050;-68
2022/03/25 01:53:12;;;;;;;42.72;28.19;;;;;;;1.98;46.67;101191.57;454325;116;922717;-68
2022/03/25 01:54:21;;;;;;;41.20;28.65;;;;;;;1.96;46.66;101189.02;453996;114;922883;-71
2022/03/25 01:55:26;;;;;;;39.85;28.02;;;;;;;1.97;46.79;101184.48;454293;116;922567;-69
2022/03/25 01:56:30;;;;;;;36.21;26.33;;;;;;;1.97;46.68;101177.27;454141;115;923023;-69
2022/03/25 01:57:33;;;;;;;41.72;27.10;;;;;;;1.97;46.68;101185.34;454389;116;922622;-69
2022/03/25 01:58:39;;;;;;;41.98;27.96;;;;;;;1.97;46.68;101189.87;454370;116;930565;-67
2022/03/25 01:59:42;;;;;;;42.32;27.81;;;;;;;1.96;46.70;101186.33;446538;118;922921;-68
2022/03/25 02:00:47;;;;;;;40.21;26.61;;;;;;;1.96;46.67;101185.48;446728;116;922635;-68
2022/03/25 02:01:51;;;;;;;42.85;27.84;;;;;;;1.94;46.69;101190.99;454067;116;922921;-71
2022/03/25 02:02:55;;;;;;;44.42;29.11;;;;;;;1.95;46.76;101186.47;454378;116;922638;-69
2022/03/25 02:03:58;;;;;;;42.74;28.85;;;;;;;1.94;46.71;101192.83;454430;116;922556;-68
2022/03/25 02:05:01;;;;;;;44.07;27.77;;;;;;;1.93;46.66;101194.66;454363;116;930616;-69
2022/03/25 02:06:06;;;;;;;45.84;29.51;;;;;;;1.90;46.57;101194.97;454103;116;922534;-69
2022/03/25 02:07:09;;;;;;;44.48;27.86;;;;;;;1.88;46.51;101191.56;454166;116;930435;-68
2022/03/25 02:08:13;;;;;;;41.25;27.12;;;;;;;1.86;46.51;101192.72;454107;116;922557;-69
2022/03/25 02:09:16;;;;;;;38.91;27.36;;;;;;;1.83;46.40;101192.98;454334;116;922818;-69
2022/03/25 02:10:20;;;;;;;36.80;26.07;;;;;;;1.79;46.35;101195.12;454423;116;923004;-69
2022/03/25 02:11:26;;;;;;;38.40;26.91;;;;;;;1.75;46.44;101191.03;453930;116;930443;-69
2022/03/25 02:12:29;;;;;;;28.44;23.95;;;;;;;1.74;46.54;101188.48;454152;116;922693;-68
2022/03/25 02:13:35;;;;;;;31.47;23.94;;;;;;;1.73;46.66;101184.94;454257;116;922525;-68
2022/03/25 02:14:39;;;;;;;29.72;23.06;;;;;;;1.74;46.65;101183.11;454418;116;922865;-69
2022/03/25 02:15:47;;;;;;;29.61;23.03;;;;;;;1.73;46.71;101189.47;454380;116;922600;-69
2022/03/25 02:16:51;;;;;;;26.55;22.57;;;;;;;1.72;46.64;101191.30;454279;116;922573;-68
2022/03/25 02:17:55;;;;;;;29.66;23.69;;;;;;;1.72;46.70;101188.61;454186;116;922701;-69
2022/03/25 02:18:58;;;;;;;37.89;23.92;;;;;;;1.73;46.68;101189.47;446399;118;926602;-69
2022/03/25 02:20:07;;;;;;;31.31;23.14;;;;;;;1.73;46.64;101184.09;447082;116;923143;-65
2022/03/25 02:21:08;;;;;;;30.23;24.39;;;;;;;1.73;46.69;101187.62;454187;116;922601;-68
2022/03/25 02:22:12;;;;;;;26.30;22.63;;;;;;;1.73;46.67;101195.69;446085;119;922715;-70
2022/03/25 02:23:16;;;;;;;32.74;23.84;;;;;;;1.73;46.68;101192.16;446427;116;922734;-69
2022/03/25 02:24:19;;;;;;;25.24;21.38;;;;;;;1.72;46.67;101190.45;454412;116;922612;-68
2022/03/25 02:25:26;;;;;;;27.11;21.95;;;;;;;1.72;46.69;101195.83;454470;116;922640;-69
2022/03/25 02:26:30;;;;;;;28.42;21.78;;;;;;;1.71;46.70;101194.97;447360;118;922959;-69
2022/03/25 02:27:36;;;;;;;34.30;22.93;;;;;;;1.71;46.76;101194.16;442337;119;922707;-69
2022/03/25 02:28:40;;;;;;;29.52;22.54;;;;;;;1.70;46.70;101198.69;439104;119;922582;-68
2022/03/25 02:29:44;;;;;;;24.31;20.01;;;;;;;1.68;46.71;101201.50;446255;116;922646;-68
2022/03/25 02:30:48;;;;;;;28.49;22.52;;;;;;;1.68;46.71;101195.28;446010;118;922813;-70
2022/03/25 02:31:51;;;;;;;27.07;21.94;;;;;;;1.68;46.62;101197.96;446583;116;923144;-67
2022/03/25 02:33:01;;;;;;;28.23;21.69;;;;;;;1.67;46.61;101198.95;454344;116;922577;-71
2022/03/25 02:34:03;;;;;;;30.59;23.01;;;;;;;1.68;46.56;101200.66;453770;116;930422;-69
2022/03/25 02:35:07;;;;;;;34.17;23.90;;;;;;;1.67;46.60;101199.80;454294;116;922571;-69
2022/03/25 02:36:12;;;;;;;39.49;25.56;;;;;;;1.65;46.48;101207.14;453890;116;923087;-69
2022/03/25 02:37:17;;;;;;;33.36;25.29;;;;;;;1.61;46.36;101199.52;454353;116;922694;-69
2022/03/25 02:38:22;;;;;;;34.71;24.65;;;;;;;1.53;46.33;101212.83;454366;116;922626;-68
2022/03/25 02:39:27;;;;;;;33.90;24.43;;;;;;;1.43;46.38;101202.09;454161;116;923063;-68
2022/03/25 02:40:31;;;;;;;31.61;25.06;;;;;;;1.35;46.44;101195.70;454335;116;922602;-69
2022/03/25 02:41:34;;;;;;;36.29;25.17;;;;;;;1.28;46.47;101205.30;454352;116;922611;-68
2022/03/25 02:42:37;;;;;;;36.99;24.57;;;;;;;1.20;46.59;101209.55;454341;116;922513;-69
2022/03/25 02:43:41;;;;;;;33.64;25.57;;;;;;;1.13;46.72;101202.18;454352;116;930606;-68
2022/03/25 02:44:45;;;;;;;33.46;24.84;;;;;;;1.07;46.74;101203.58;454439;116;922682;-71
2022/03/25 02:45:49;;;;;;;33.58;24.85;;;;;;;1.00;46.74;101213.17;454178;116;922656;-68
2022/03/25 02:46:52;;;;;;;29.38;23.86;;;;;;;0.96;46.92;101205.53;454314;116;930593;-69
2022/03/25 02:47:56;;;;;;;29.05;24.24;;;;;;;0.91;47.06;101210.47;454445;116;922679;-68
2022/03/25 02:48:59;;;;;;;32.04;24.09;;;;;;;0.87;47.10;101215.27;454435;116;922630;-70
2022/03/25 02:50:03;;;;;;;32.91;24.66;;;;;;;0.84;47.27;101215.53;454377;116;930587;-69
2022/03/25 02:51:06;;;;;;;32.88;23.58;;;;;;;0.80;47.31;101209.59;454433;116;922642;-69
2022/03/25 02:52:10;;;;;;;34.69;26.09;;;;;;;0.77;47.41;101215.22;454383;116;922531;-69
2022/03/25 02:53:13;;;;;;;30.57;25.03;;;;;;;0.74;47.47;101211.97;454151;116;922993;-69
2022/03/25 02:54:17;;;;;;;34.12;25.36;;;;;;;0.72;47.52;101213.93;454403;116;922770;-68
2022/03/25 02:55:20;;;;;;;29.70;23.38;;;;;;;0.72;47.61;101216.61;454143;116;922503;-69
2022/03/25 02:56:28;;;;;;;27.82;24.27;;;;;;;0.70;47.68;101219.45;454429;116;922650;-69
2022/03/25 02:57:29;;;;;;;29.19;23.70;;;;;;;0.72;47.77;101213.93;453843;116;930330;-69
2022/03/25 02:58:34;;;;;;;39.66;25.37;;;;;;;0.72;47.88;101209.41;453835;116;922644;-68
2022/03/25 02:59:37;;;;;;;28.46;23.30;;;;;;;0.75;47.96;101208.30;454439;116;923394;-69
2022/03/25 03:00:42;;;;;;;42.14;25.66;;;;;;;0.76;48.13;101213.55;454393;116;922625;-71
2022/03/25 03:01:45;;;;;;;36.94;24.69;;;;;;;0.77;48.19;101215.22;454343;116;922726;-68
2022/03/25 03:02:49;;;;;;;37.38;25.50;;;;;;;0.78;48.15;101216.07;454893;116;930554;-67
2022/03/25 03:03:53;;;;;;;37.93;24.63;;;;;;;0.78;48.13;101216.07;456950;116;930457;-68
2022/03/25 03:04:56;;;;;;;29.51;24.67;;;;;;;0.77;48.11;101212.53;457041;116;930555;-68
2022/03/25 03:06:00;;;;;;;37.10;24.32;;;;;;;0.78;48.14;101216.07;457094;116;923028;-68
2022/03/25 03:07:03;;;;;;;32.40;24.36;;;;;;;0.79;48.20;101210.58;456768;116;923333;-68
2022/03/25 03:08:07;;;;;;;30.16;24.23;;;;;;;0.81;48.33;101213.13;456781;116;922859;-68
2022/03/25 03:09:11;;;;;;;36.62;24.82;;;;;;;0.84;48.43;101210.16;456811;116;922545;-69
2022/03/25 03:10:15;;;;;;;26.83;21.78;;;;;;;0.87;48.54;101215.27;457048;116;922574;-70
2022/03/25 03:11:18;;;;;;;24.58;22.01;;;;;;;0.91;48.67;101210.47;456961;116;930308;-69
2022/03/25 03:12:22;;;;;;;31.44;22.66;;;;;;;0.95;48.62;101214.56;457024;116;930248;-68
2022/03/25 03:13:25;;;;;;;26.33;21.82;;;;;;;0.99;48.54;101214.18;457080;116;922617;-70
2022/03/25 03:14:29;;;;;;;33.32;22.18;;;;;;;1.03;48.69;101217.43;457115;116;922761;-68
2022/03/25 03:15:32;;;;;;;29.29;21.59;;;;;;;1.06;48.58;101220.67;457135;116;922512;-68
2022/03/25 03:16:36;;;;;;;27.09;20.54;;;;;;;1.10;48.52;101213.21;457135;116;922534;-69
2022/03/25 03:17:41;;;;;;;27.03;21.04;;;;;;;1.13;48.51;101224.52;456436;116;922565;-69
2022/03/25 03:18:44;;;;;;;32.83;22.38;;;;;;;1.17;48.36;101225.93;457044;116;922923;-67
2022/03/25 03:19:48;;;;;;;26.42;22.19;;;;;;;1.17;48.36;101225.93;457039;116;930483;-68
2022/03/25 03:20:51;;;;;;;24.61;21.01;;;;;;;1.21;48.55;101215.78;457029;116;922992;-70
2022/03/25 03:21:55;;;;;;;27.42;22.59;;;;;;;1.24;48.55;101228.91;457031;116;922713;-69
2022/03/25 03:22:58;;;;;;;27.79;21.74;;;;;;;1.25;48.47;101223.41;456960;116;930371;-66
2022/03/25 03:24:02;;;;;;;30.72;22.69;;;;;;;1.29;48.50;101225.80;457116;116;923042;-68
2022/03/25 03:25:06;;;;;;;26.67;22.31;;;;;;;1.30;48.46;101227.51;457117;116;922673;-68
2022/03/25 03:26:10;;;;;;;30.34;23.08;;;;;;;1.30;48.43;101222.98;456942;116;922566;-67
2022/03/25 03:27:15;;;;;;;30.54;24.30;;;;;;;1.31;48.38;101229.22;456972;116;930393;-68
2022/03/25 03:28:18;;;;;;;30.89;22.37;;;;;;;1.32;48.43;101230.92;457040;116;922632;-68
2022/03/25 03:29:21;;;;;;;23.88;21.35;;;;;;;1.32;48.37;101228.23;457063;116;924023;-69
2022/03/25 03:30:25;;;;;;;23.82;21.04;;;;;;;1.32;48.37;101223.71;457071;115;922509;-68
2022/03/25 03:31:28;;;;;;;22.37;19.98;;;;;;;1.32;48.39;101231.77;457022;116;922616;-68
2022/03/25 03:32:32;;;;;;;27.74;20.86;;;;;;;1.33;48.44;101227.22;457016;116;922558;-68
2022/03/25 03:33:35;;;;;;;30.62;20.92;;;;;;;1.33;48.41;101233.44;456732;113;923019;-69
2022/03/25 03:34:38;;;;;;;24.19;20.31;;;;;;;1.35;48.42;101230.63;457048;116;922565;-68
2022/03/25 03:35:42;;;;;;;24.44;20.51;;;;;;;1.35;48.38;101236.84;456985;116;922945;-69
2022/03/25 03:36:45;;;;;;;27.37;20.70;;;;;;;1.34;48.44;101235.14;457042;114;923324;-69
2022/03/25 03:37:48;;;;;;;25.86;20.03;;;;;;;1.34;48.40;101228.92;456653;116;923079;-67
2022/03/25 03:38:52;;;;;;;23.58;20.12;;;;;;;1.34;48.41;101228.92;457003;116;922526;-67
2022/03/25 03:39:55;;;;;;;22.63;20.28;;;;;;;1.33;48.46;101229.91;457040;116;922557;-68
2022/03/25 03:40:59;;;;;;;22.79;20.39;;;;;;;1.33;48.43;101233.44;457060;116;922917;-68
2022/03/25 03:42:08;;;;;;;21.17;19.09;;;;;;;1.33;48.38;101235.28;457039;116;923059;-68
2022/03/25 03:43:08;;;;;;;22.58;19.61;;;;;;;1.33;48.38;101240.65;456418;116;922980;-70
2022/03/25 03:44:11;;;;;;;24.34;20.39;;;;;;;1.32;48.42;101237.14;457046;116;922572;-68
2022/03/25 03:45:15;;;;;;;23.75;20.60;;;;;;;1.32;48.52;101236.29;456958;115;930551;-67
2022/03/25 03:46:19;;;;;;;24.00;19.84;;;;;;;1.31;48.39;101235.44;456958;116;922677;-71
2022/03/25 03:47:22;;;;;;;21.04;18.22;;;;;;;1.31;48.48;101240.81;456972;116;930380;-69
2022/03/25 03:48:25;;;;;;;23.91;20.03;;;;;;;1.29;48.49;101242.78;457092;116;930656;-67
2022/03/25 03:49:28;;;;;;;23.49;20.04;;;;;;;1.28;48.58;101246.45;457012;115;930539;-69
2022/03/25 03:50:32;;;;;;;23.32;20.69;;;;;;;1.27;48.60;101244.73;457087;116;922636;-70
2022/03/25 03:51:35;;;;;;;21.41;19.23;;;;;;;1.27;48.62;101250.11;456956;116;930422;-70
2022/03/25 03:52:39;;;;;;;24.23;19.42;;;;;;;1.25;48.64;101247.59;457033;116;924081;-70
2022/03/25 03:53:43;;;;;;;23.72;19.23;;;;;;;1.24;48.69;101251.25;457090;116;922515;-68
2022/03/25 03:54:46;;;;;;;22.46;19.01;;;;;;;1.23;48.79;101254.07;457148;116;923012;-69
2022/03/25 03:55:50;;;;;;;22.11;19.13;;;;;;;1.23;48.81;101256.76;457029;116;931052;-68
2022/03/25 03:56:53;;;;;;;22.85;18.61;;;;;;;1.23;48.82;101254.07;457094;116;922648;-69
2022/03/25 03:57:57;;;;;;;20.99;18.82;;;;;;;1.22;48.89;101253.22;457084;116;922530;-68
2022/03/25 03:59:00;;;;;;;21.92;19.61;;;;;;;1.24;48.92;101253.09;457069;116;930773;-68
2022/03/25 04:00:07;;;;;;;26.45;21.74;;;;;;;1.25;48.90;101249.42;457155;116;922576;-68
2022/03/25 04:01:12;;;;;;;35.56;22.64;;;;;;;1.23;48.83;101262.12;456385;116;930948;-67
2022/03/25 04:02:18;;;;;;;25.81;20.69;;;;;;;1.18;48.87;101257.17;456235;116;922689;-68
2022/03/25 04:03:21;;;;;;;33.09;22.63;;;;;;;1.14;48.92;101261.14;457028;116;922773;-70
2022/03/25 04:04:24;;;;;;;26.52;22.19;;;;;;;1.10;49.01;101262.38;457016;116;930380;-68
2022/03/25 04:05:28;;;;;;;27.85;23.08;;;;;;;1.06;49.11;101260.95;456624;116;922625;-69
2022/03/25 04:06:32;;;;;;;25.56;21.94;;;;;;;1.04;49.11;101262.09;456804;114;930422;-68
2022/03/25 04:07:46;;;;;;;24.76;22.03;;;;;;;1.01;49.10;101268.58;456458;115;930514;-67
2022/03/25 04:08:50;;;;;;;27.15;22.70;;;;;;;0.98;49.18;101270.70;456852;116;930437;-67
2022/03/25 04:09:53;;;;;;;29.16;22.12;;;;;;;0.95;49.26;101268.27;456995;116;922663;-69
2022/03/25 04:10:56;;;;;;;27.33;22.26;;;;;;;0.91;49.28;101266.84;457008;116;922758;-66
2022/03/25 04:12:00;;;;;;;32.66;23.41;;;;;;;0.88;49.30;101267.98;457023;114;922619;-69
2022/03/25 04:13:03;;;;;;;35.13;23.17;;;;;;;0.86;49.43;101266.41;457064;116;923173;-67
2022/03/25 04:14:07;;;;;;;33.76;21.93;;;;;;;0.84;49.47;101263.84;457151;116;922831;-68
2022/03/25 04:15:13;;;;;;;32.13;23.18;;;;;;;0.80;49.49;101265.11;456899;116;922927;-67
2022/03/25 04:16:19;;;;;;;30.71;22.79;;;;;;;0.78;49.69;101261.70;456987;116;922658;-67
2022/03/25 04:17:24;;;;;;;27.92;22.61;;;;;;;0.77;49.81;101268.08;457089;115;923033;-68
2022/03/25 04:18:28;;;;;;;30.61;23.11;;;;;;;0.77;49.88;101266.22;456978;116;922950;-69
2022/03/25 04:19:31;;;;;;;28.08;22.64;;;;;;;0.78;49.96;101259.02;457128;116;922511;-68
2022/03/25 04:20:35;;;;;;;31.44;21.97;;;;;;;0.80;50.06;101265.11;457118;116;922616;-68
2022/03/25 04:21:39;;;;;;;26.61;21.86;;;;;;;0.82;50.17;101264.00;457038;114;930407;-68
2022/03/25 04:22:43;;;;;;;24.40;21.79;;;;;;;0.87;50.16;101268.97;457038;116;930391;-66
2022/03/25 04:23:46;;;;;;;24.55;21.91;;;;;;;0.91;50.17;101264.16;457029;115;923132;-68
2022/03/25 04:24:50;;;;;;;25.89;21.48;;;;;;;0.97;50.16;101271.67;457049;116;930076;-70
2022/03/25 04:25:53;;;;;;;31.74;22.42;;;;;;;1.00;50.14;101269.55;457059;116;922546;-67
2022/03/25 04:26:56;;;;;;;27.09;21.53;;;;;;;1.04;50.04;101268.32;457116;116;922613;-68
2022/03/25 04:28:01;;;;;;;24.23;20.49;;;;;;;1.09;50.01;101267.91;457086;116;922665;-68
2022/03/25 04:29:06;;;;;;;27.17;21.66;;;;;;;1.13;50.04;101263.95;457043;116;922965;-65
2022/03/25 04:30:10;;;;;;;33.09;23.47;;;;;;;1.16;50.00;101264.51;457087;116;922559;-68
2022/03/25 04:31:13;;;;;;;31.85;24.20;;;;;;;1.20;49.86;101278.53;457035;116;922610;-67
2022/03/25 04:32:17;;;;;;;29.73;24.50;;;;;;;1.24;49.82;101266.52;457036;116;923027;-69
2022/03/25 04:33:20;;;;;;;37.63;24.38;;;;;;;1.28;49.77;101264.40;456951;116;930421;-68
2022/03/25 04:34:24;;;;;;;32.58;24.46;;;;;;;1.32;49.75;101265.84;457139;116;922676;-69
2022/03/25 04:35:28;;;;;;;28.67;23.29;;;;;;;1.35;49.73;101265.55;457024;116;930487;-69
2022/03/25 04:36:32;;;;;;;31.04;24.11;;;;;;;1.37;49.60;101266.27;457056;116;922628;-66
2022/03/25 04:37:35;;;;;;;34.20;25.64;;;;;;;1.40;49.51;101260.61;457059;116;930574;-71
2022/03/25 04:38:38;;;;;;;38.73;24.91;;;;;;;1.41;49.45;101268.53;457079;115;922964;-69
2022/03/25 04:39:42;;;;;;;38.02;25.20;;;;;;;1.44;49.38;101268.24;456601;116;930452;-70
2022/03/25 04:40:45;;;;;;;42.31;25.08;;;;;;;1.44;49.27;101268.24;457056;116;922691;-68
2022/03/25 04:41:49;;;;;;;42.56;25.48;;;;;;;1.45;49.29;101267.26;457096;116;922643;-68
2022/03/25 04:42:54;;;;;;;42.33;26.38;;;;;;;1.46;49.26;101263.59;457153;116;923685;-69
2022/03/25 04:43:57;;;;;;;36.63;25.26;;;;;;;1.48;49.22;101268.84;456655;116;922678;-70
2022/03/25 04:45:00;;;;;;;39.26;25.35;;;;;;;1.50;49.17;101266.84;457129;116;922500;-70
2022/03/25 04:46:05;;;;;;;37.06;25.75;;;;;;;1.52;49.17;101267.56;456924;116;922522;-67
2022/03/25 04:47:08;;;;;;;37.07;26.41;;;;;;;1.53;49.09;101263.89;456954;116;931001;-69
2022/03/25 04:48:12;;;;;;;42.01;26.57;;;;;;;1.56;48.96;101274.34;457005;116;930503;-69
2022/03/25 04:49:15;;;;;;;41.29;27.17;;;;;;;1.57;48.91;101267.98;457083;116;922574;-70
2022/03/25 04:50:21;;;;;;;45.69;27.81;;;;;;;1.59;48.89;101264.19;457102;116;922470;-72